Time;durP1;ratioP1;P1;durP2;ratioP2;P2;SDS_P1;SDS_P2;PMS_P1;PMS_P2;Temp;Humidity;BMP_temperature;BMP_pressure;BME280_temperature;BME280_humidity;BME280_pressure;Samples;Min_cycle;Max_cycle;Signal;HPM_P1;HPM_P2
2024/01/02 00:02:02;;;;;;;9.57;1.20;;;;;;;;;;5050458;28;20052;-59
2024/01/02 00:04:27;;;;;;;9.93;1.58;;;;;;;;;;5050600;28;20063;-59
2024/01/02 00:06:53;;;;;;;8.38;1.33;;;;;;;;;;5050733;28;20025;-60
2024/01/02 00:09:18;;;;;;;5.83;1.17;;;;;;;;;;5070089;28;20033;-59
2024/01/02 00:11:43;;;;;;;7.20;1.17;;;;;;;;;;5053113;28;20087;-59
2024/01/02 00:14:08;;;;;;;9.93;1.30;;;;;;;;;;5068311;28;20025;-59
2024/01/02 00:16:33;;;;;;;10.03;1.60;;;;;;;;;;5073670;28;20503;-60
2024/01/02 00:18:58;;;;;;;10.93;1.67;;;;;;;;;;5073835;28;20407;-59
2024/01/02 00:21:24;;;;;;;10.23;1.20;;;;;;;;;;5060390;28;20399;-59
2024/01/02 00:23:49;;;;;;;7.90;1.13;;;;;;;;;;5053225;28;20040;-59
2024/01/02 00:26:14;;;;;;;8.15;1.27;;;;;;;;;;5053545;28;20033;-58
2024/01/02 00:28:39;;;;;;;7.07;1.40;;;;;;;;;;5056714;28;20433;-58
2024/01/02 00:31:04;;;;;;;7.13;1.30;;;;;;;;;;5070450;28;20020;-59
2024/01/02 00:33:29;;;;;;;9.23;1.70;;;;;;;;;;5074469;28;20062;-59
2024/01/02 00:35:54;;;;;;;5.25;1.27;;;;;;;;;;5074824;28;20123;-59
2024/01/02 00:38:22;;;;;;;8.05;1.40;;;;;;;;;;5074570;28;20021;-59
2024/01/02 00:40:47;;;;;;;8.13;1.45;;;;;;;;;;5076864;28;20433;-59
2024/01/02 00:43:12;;;;;;;8.60;1.07;;;;;;;;;;5073408;28;20065;-60
2024/01/02 00:45:37;;;;;;;7.22;1.02;;;;;;;;;;5071479;28;20017;-59
2024/01/02 00:48:03;;;;;;;6.10;1.27;;;;;;;;;;5072876;28;20046;-59
2024/01/02 00:50:28;;;;;;;8.68;1.50;;;;;;;;;;5075982;28;20411;-59
2024/01/02 00:52:53;;;;;;;9.17;1.17;;;;;;;;;;5080069;28;20104;-59
2024/01/02 00:55:18;;;;;;;7.50;1.17;;;;;;;;;;5072663;28;20404;-58
2024/01/02 00:57:44;;;;;;;9.30;0.93;;;;;;;;;;5071289;28;20139;-59
2024/01/02 01:00:09;;;;;;;6.10;1.10;;;;;;;;;;5073090;28;20020;-58
2024/01/02 01:02:35;;;;;;;6.22;0.90;;;;;;;;;;5074567;28;20038;-58
2024/01/02 01:05:00;;;;;;;5.88;0.88;;;;;;;;;;5075917;28;20035;-59
2024/01/02 01:07:25;;;;;;;5.15;0.90;;;;;;;;;;5092153;28;20077;-59
2024/01/02 01:09:50;;;;;;;6.60;1.08;;;;;;;;;;5092946;28;20510;-60
2024/01/02 01:12:15;;;;;;;6.93;1.33;;;;;;;;;;5074236;28;20031;-59
2024/01/02 01:14:41;;;;;;;3.83;0.80;;;;;;;;;;5072623;28;20036;-59
2024/01/02 01:17:06;;;;;;;7.10;0.90;;;;;;;;;;5072438;28;20024;-60
2024/01/02 01:19:32;;;;;;;8.43;1.17;;;;;;;;;;5070665;28;20031;-59
2024/01/02 01:21:57;;;;;;;6.50;0.90;;;;;;;;;;5071293;28;20040;-59
2024/01/02 01:24:22;;;;;;;9.37;1.17;;;;;;;;;;5072302;28;20020;-59
2024/01/02 01:26:52;;;;;;;6.68;0.93;;;;;;;;;;5072635;28;20118;-59
2024/01/02 01:29:18;;;;;;;4.63;0.77;;;;;;;;;;5072646;28;20016;-58
2024/01/02 01:31:43;;;;;;;6.50;0.73;;;;;;;;;;5072031;28;20039;-59
2024/01/02 01:34:08;;;;;;;4.70;0.63;;;;;;;;;;5071873;28;20108;-58
2024/01/02 01:36:33;;;;;;;3.05;0.50;;;;;;;;;;5065684;28;20016;-59
2024/01/02 01:38:58;;;;;;;3.53;0.60;;;;;;;;;;5072079;28;20135;-59
2024/01/02 01:41:23;;;;;;;3.95;0.50;;;;;;;;;;5071591;28;20020;-59
2024/01/02 01:43:48;;;;;;;1.88;0.30;;;;;;;;;;5071977;28;20477;-59
2024/01/02 01:46:15;;;;;;;3.37;0.33;;;;;;;;;;5071987;28;20047;-59
2024/01/02 01:48:40;;;;;;;3.63;0.40;;;;;;;;;;5074904;28;20029;-59
2024/01/02 01:51:06;;;;;;;2.38;0.40;;;;;;;;;;5071398;28;20024;-59
2024/01/02 01:53:31;;;;;;;4.00;0.40;;;;;;;;;;5067831;28;20016;-59
2024/01/02 01:55:58;;;;;;;3.00;0.30;;;;;;;;;;5071830;28;20096;-58
2024/01/02 01:58:24;;;;;;;3.15;0.40;;;;;;;;;;5071845;28;20031;-59
2024/01/02 02:00:49;;;;;;;2.00;0.22;;;;;;;;;;5071626;28;20459;-60
2024/01/02 02:03:16;;;;;;;5.35;0.65;;;;;;;;;;5071401;28;20074;-59
2024/01/02 02:05:41;;;;;;;2.25;0.40;;;;;;;;;;5071734;28;20029;-60
2024/01/02 02:08:06;;;;;;;2.75;0.40;;;;;;;;;;5057584;28;20021;-59
2024/01/02 02:10:31;;;;;;;1.53;0.30;;;;;;;;;;5068064;28;20009;-60
2024/01/02 02:12:57;;;;;;;4.03;0.37;;;;;;;;;;5091988;28;20041;-59
2024/01/02 02:15:23;;;;;;;2.78;0.30;;;;;;;;;;5093059;28;20032;-60
2024/01/02 02:17:48;;;;;;;2.30;0.30;;;;;;;;;;5088317;28;20020;-59
2024/01/02 02:20:13;;;;;;;1.55;0.30;;;;;;;;;;5066833;28;20012;-57
2024/01/02 02:22:41;;;;;;;2.93;0.33;;;;;;;;;;5074422;28;20104;-58
2024/01/02 02:25:08;;;;;;;3.63;0.52;;;;;;;;;;5071360;28;20526;-59
2024/01/02 02:27:33;;;;;;;3.25;0.20;;;;;;;;;;5071162;28;20024;-59
2024/01/02 02:29:59;;;;;;;2.25;0.20;;;;;;;;;;5067749;28;20464;-58
2024/01/02 02:32:24;;;;;;;3.33;0.50;;;;;;;;;;5069649;28;20022;-58
2024/01/02 02:34:49;;;;;;;3.47;0.40;;;;;;;;;;5064285;28;20043;-58
2024/01/02 02:37:14;;;;;;;2.45;0.28;;;;;;;;;;5069378;28;20435;-58
2024/01/02 02:39:39;;;;;;;1.75;0.38;;;;;;;;;;5070503;28;20081;-57
2024/01/02 02:42:04;;;;;;;1.55;0.30;;;;;;;;;;5084038;28;20032;-57
2024/01/02 02:44:31;;;;;;;1.50;0.27;;;;;;;;;;5091418;28;20703;-59
2024/01/02 02:46:56;;;;;;;2.22;0.30;;;;;;;;;;5088492;28;20016;-57
2024/01/02 02:49:21;;;;;;;3.53;0.50;;;;;;;;;;5074798;28;20019;-59
2024/01/02 02:51:46;;;;;;;2.50;0.30;;;;;;;;;;5074258;28;20028;-57
2024/01/02 02:54:12;;;;;;;2.78;0.40;;;;;;;;;;5069187;28;20044;-59
2024/01/02 02:56:37;;;;;;;2.07;0.50;;;;;;;;;;5070807;28;20028;-58
2024/01/02 02:59:02;;;;;;;0.93;0.20;;;;;;;;;;5070766;28;20366;-59
2024/01/02 03:01:28;;;;;;;3.90;0.63;;;;;;;;;;5070224;28;20025;-58
2024/01/02 03:03:53;;;;;;;2.87;0.40;;;;;;;;;;5068020;28;20050;-59
2024/01/02 03:06:18;;;;;;;3.67;0.50;;;;;;;;;;5070358;28;20487;-58
2024/01/02 03:08:43;;;;;;;2.37;0.47;;;;;;;;;;5070299;28;20021;-58
2024/01/02 03:11:08;;;;;;;5.60;0.50;;;;;;;;;;5078166;28;20024;-59
2024/01/02 03:13:33;;;;;;;3.53;0.60;;;;;;;;;;5077401;28;20036;-59
2024/01/02 03:15:58;;;;;;;2.78;0.38;;;;;;;;;;5070485;28;20479;-60
2024/01/02 03:18:24;;;;;;;1.67;0.40;;;;;;;;;;5068921;28;20063;-58
2024/01/02 03:20:49;;;;;;;2.08;0.52;;;;;;;;;;5066409;28;20040;-57
2024/01/02 03:23:14;;;;;;;3.53;0.57;;;;;;;;;;5068077;28;20480;-58
2024/01/02 03:25:39;;;;;;;5.17;1.30;;;;;;;;;;5070368;28;20055;-58
2024/01/02 03:28:04;;;;;;;3.53;0.50;;;;;;;;;;5070332;28;20028;-59
2024/01/02 03:30:29;;;;;;;3.53;0.50;;;;;;;;;;5074938;28;20051;-59
2024/01/02 03:32:55;;;;;;;4.00;0.40;;;;;;;;;;5054063;28;20029;-59
2024/01/02 03:35:20;;;;;;;1.15;0.38;;;;;;;;;;5053098;28;20029;-58
2024/01/02 03:37:45;;;;;;;3.05;0.40;;;;;;;;;;5066575;28;20106;-59
2024/01/02 03:40:11;;;;;;;2.53;0.57;;;;;;;;;;5067112;28;20042;-59
2024/01/02 03:42:36;;;;;;;5.22;1.20;;;;;;;;;;5072512;28;20027;-59
2024/01/02 03:45:01;;;;;;;1.37;0.30;;;;;;;;;;5070167;28;20020;-60
2024/01/02 03:47:26;;;;;;;1.37;0.37;;;;;;;;;;5070522;28;20035;-56
2024/01/02 03:49:51;;;;;;;3.60;0.60;;;;;;;;;;5074252;28;20029;-59
2024/01/02 03:52:16;;;;;;;2.92;0.50;;;;;;;;;;5056936;28;20020;-59
2024/01/02 03:54:42;;;;;;;2.97;0.50;;;;;;;;;;5071636;28;20049;-59
2024/01/02 03:57:07;;;;;;;4.65;0.60;;;;;;;;;;5073812;28;20438;-58
2024/01/02 03:59:34;;;;;;;5.60;1.10;;;;;;;;;;5081633;28;20019;-59
2024/01/02 04:01:59;;;;;;;1.58;0.35;;;;;;;;;;5074652;28;20028;-58
2024/01/02 04:04:25;;;;;;;2.33;0.50;;;;;;;;;;5073964;28;20423;-58
2024/01/02 04:06:50;;;;;;;4.28;0.65;;;;;;;;;;5073982;28;20108;-59
2024/01/02 04:09:15;;;;;;;1.80;0.45;;;;;;;;;;5068606;28;20028;-58
2024/01/02 04:11:41;;;;;;;5.63;1.17;;;;;;;;;;5068244;28;20504;-59
2024/01/02 04:14:06;;;;;;;3.45;0.60;;;;;;;;;;5072312;28;20029;-59
2024/01/02 04:16:31;;;;;;;2.25;0.40;;;;;;;;;;5073874;28;20103;-59
2024/01/02 04:18:56;;;;;;;2.58;0.60;;;;;;;;;;5058013;28;20396;-58
2024/01/02 04:21:21;;;;;;;2.23;0.43;;;;;;;;;;5060965;28;20046;-59
2024/01/02 04:23:46;;;;;;;4.97;0.67;;;;;;;;;;5073036;28;20073;-59
2024/01/02 04:26:12;;;;;;;5.38;1.10;;;;;;;;;;5071919;28;20081;-59
2024/01/02 04:28:37;;;;;;;4.10;1.03;;;;;;;;;;5073521;28;20013;-57
2024/01/02 04:31:02;;;;;;;2.85;0.50;;;;;;;;;;5065587;28;20596;-58
2024/01/02 04:33:27;;;;;;;3.42;0.63;;;;;;;;;;5068034;28;20065;-58
2024/01/02 04:35:52;;;;;;;4.97;0.80;;;;;;;;;;5073261;28;20040;-58
2024/01/02 04:38:17;;;;;;;4.25;0.60;;;;;;;;;;5085370;28;20468;-58
2024/01/02 04:40:42;;;;;;;4.47;0.70;;;;;;;;;;5086925;28;20052;-58
2024/01/02 04:43:08;;;;;;;5.50;0.90;;;;;;;;;;5065721;28;20498;-57
2024/01/02 04:45:33;;;;;;;5.97;0.85;;;;;;;;;;5073243;28;20597;-59
2024/01/02 04:47:59;;;;;;;5.43;0.80;;;;;;;;;;5073327;28;20024;-58
2024/01/02 04:50:24;;;;;;;3.97;0.70;;;;;;;;;;5072626;28;20050;-58
2024/01/02 04:52:49;;;;;;;4.45;0.80;;;;;;;;;;5092361;28;20023;-58
2024/01/02 04:55:14;;;;;;;5.47;0.80;;;;;;;;;;5093123;28;20120;-58
2024/01/02 04:57:39;;;;;;;5.65;0.60;;;;;;;;;;5088726;28;20038;-59
2024/01/02 05:00:05;;;;;;;5.47;0.73;;;;;;;;;;5069950;28;20025;-58
2024/01/02 05:02:30;;;;;;;5.80;1.20;;;;;;;;;;5069068;28;20024;-58
2024/01/02 05:04:56;;;;;;;3.53;0.80;;;;;;;;;;5072926;28;20086;-58
2024/01/02 05:07:21;;;;;;;5.53;0.90;;;;;;;;;;5072845;28;20036;-59
2024/01/02 05:09:46;;;;;;;5.50;0.73;;;;;;;;;;5072673;28;20086;-58
2024/01/02 05:12:11;;;;;;;6.38;0.70;;;;;;;;;;5078909;28;20012;-59
2024/01/02 05:14:37;;;;;;;5.32;0.88;;;;;;;;;;5078016;28;20039;-58
2024/01/02 05:17:03;;;;;;;3.42;0.90;;;;;;;;;;5074022;28;20013;-58
2024/01/02 05:19:28;;;;;;;4.75;1.20;;;;;;;;;;5058968;28;20029;-58
2024/01/02 05:21:53;;;;;;;6.25;1.17;;;;;;;;;;5060568;28;20586;-58
2024/01/02 05:24:18;;;;;;;4.53;1.00;;;;;;;;;;5093304;28;20039;-57
2024/01/02 05:26:44;;;;;;;7.25;1.40;;;;;;;;;;5093382;28;20051;-56
2024/01/02 05:29:09;;;;;;;6.17;1.20;;;;;;;;;;5092555;28;20020;-58
2024/01/02 05:31:34;;;;;;;6.90;1.00;;;;;;;;;;5077894;28;20499;-57
2024/01/02 05:33:59;;;;;;;4.97;1.20;;;;;;;;;;5071480;28;20472;-57
2024/01/02 05:36:24;;;;;;;5.47;1.00;;;;;;;;;;5071206;28;20031;-57
2024/01/02 05:38:49;;;;;;;6.85;1.85;;;;;;;;;;5071731;28;20056;-56
2024/01/02 05:41:14;;;;;;;5.20;1.35;;;;;;;;;;5071972;28;20469;-58
2024/01/02 05:43:40;;;;;;;4.25;1.13;;;;;;;;;;5070910;28;20099;-58
2024/01/02 05:46:05;;;;;;;4.72;1.10;;;;;;;;;;5071591;28;20109;-59
2024/01/02 05:48:30;;;;;;;4.30;1.20;;;;;;;;;;5068658;28;20480;-59
2024/01/02 05:50:55;;;;;;;3.25;1.08;;;;;;;;;;5071129;28;20103;-59
2024/01/02 05:53:20;;;;;;;4.07;1.20;;;;;;;;;;5071635;28;20040;-60
2024/01/02 05:55:45;;;;;;;5.80;1.20;;;;;;;;;;5071900;28;20032;-59
2024/01/02 05:58:10;;;;;;;4.50;1.40;;;;;;;;;;5071374;28;20028;-58
2024/01/02 06:00:35;;;;;;;5.32;1.38;;;;;;;;;;5071704;28;20020;-58
2024/01/02 06:03:01;;;;;;;4.05;1.30;;;;;;;;;;5078370;28;20090;-59
2024/01/02 06:05:26;;;;;;;5.83;1.50;;;;;;;;;;5059765;28;20032;-59
2024/01/02 06:07:51;;;;;;;3.97;1.30;;;;;;;;;;5071110;28;20016;-58
2024/01/02 06:10:16;;;;;;;4.00;1.43;;;;;;;;;;5068607;28;20550;-59
2024/01/02 06:12:41;;;;;;;4.00;1.25;;;;;;;;;;5062328;28;20027;-59
2024/01/02 06:15:07;;;;;;;3.83;1.25;;;;;;;;;;5051544;28;20060;-59
2024/01/02 06:17:32;;;;;;;5.23;1.50;;;;;;;;;;5064192;28;20408;-59
2024/01/02 06:19:57;;;;;;;4.65;1.60;;;;;;;;;;5071297;28;20775;-59
2024/01/02 06:22:22;;;;;;;5.93;1.50;;;;;;;;;;5077447;28;20020;-58
2024/01/02 06:24:47;;;;;;;4.80;1.30;;;;;;;;;;5076398;28;20033;-58
2024/01/02 06:27:13;;;;;;;3.87;1.60;;;;;;;;;;5057460;28;20440;-58
2024/01/02 06:29:38;;;;;;;5.70;1.40;;;;;;;;;;5048582;28;20020;-58
2024/01/02 06:32:03;;;;;;;4.57;1.60;;;;;;;;;;5058393;28;20526;-58
2024/01/02 06:34:28;;;;;;;5.53;1.45;;;;;;;;;;5054951;28;20040;-59
2024/01/02 06:36:53;;;;;;;4.93;1.63;;;;;;;;;;5065923;28;20412;-57
2024/01/02 06:39:19;;;;;;;6.13;1.40;;;;;;;;;;5053850;28;20025;-58
2024/01/02 06:41:44;;;;;;;4.30;1.40;;;;;;;;;;5055881;28;20043;-57
2024/01/02 06:44:10;;;;;;;5.10;1.50;;;;;;;;;;5051483;28;20020;-57
2024/01/02 06:46:35;;;;;;;5.82;1.60;;;;;;;;;;5065197;28;20025;-58
2024/01/02 06:49:00;;;;;;;4.70;1.80;;;;;;;;;;5060306;28;20408;-58
2024/01/02 06:51:28;;;;;;;5.68;1.65;;;;;;;;;;5049536;28;20021;-58
2024/01/02 06:53:53;;;;;;;5.15;1.35;;;;;;;;;;5050259;28;20033;-58
2024/01/02 06:56:18;;;;;;;5.95;1.75;;;;;;;;;;5060661;28;20496;-59
2024/01/02 06:58:44;;;;;;;6.87;1.43;;;;;;;;;;5066535;28;20021;-59
2024/01/02 07:01:12;;;;;;;6.32;1.90;;;;;;;;;;5067254;28;20432;-58
2024/01/02 07:03:37;;;;;;;5.13;1.73;;;;;;;;;;5055119;28;20028;-60
2024/01/02 07:06:02;;;;;;;3.90;1.30;;;;;;;;;;5061484;28;20021;-58
2024/01/02 07:08:28;;;;;;;5.35;1.58;;;;;;;;;;5050876;28;20048;-58
2024/01/02 07:10:53;;;;;;;5.78;1.50;;;;;;;;;;5056121;28;20025;-57
2024/01/02 07:13:18;;;;;;;5.03;1.75;;;;;;;;;;5050545;28;20112;-58
2024/01/02 07:15:43;;;;;;;5.10;1.70;;;;;;;;;;5062137;28;20547;-58
2024/01/02 07:18:09;;;;;;;7.03;1.92;;;;;;;;;;5053453;28;20029;-58
2024/01/02 07:20:34;;;;;;;6.33;1.60;;;;;;;;;;5059620;28;20035;-57
2024/01/02 07:22:59;;;;;;;6.90;2.08;;;;;;;;;;5069981;28;20411;-57
2024/01/02 07:25:24;;;;;;;8.07;2.10;;;;;;;;;;5064566;28;20044;-58
2024/01/02 07:27:50;;;;;;;5.43;1.80;;;;;;;;;;5053146;28;20691;-57
2024/01/02 07:30:15;;;;;;;7.72;2.55;;;;;;;;;;5070330;28;20446;-57
2024/01/02 07:32:40;;;;;;;5.90;1.88;;;;;;;;;;5056607;28;20249;-59
2024/01/02 07:35:05;;;;;;;9.80;2.17;;;;;;;;;;5059832;28;20401;-59
2024/01/02 07:37:32;;;;;;;5.30;1.70;;;;;;;;;;5060833;28;20020;-60
2024/01/02 07:39:57;;;;;;;5.75;1.70;;;;;;;;;;5054885;28;20020;-59
2024/01/02 07:42:22;;;;;;;7.30;1.65;;;;;;;;;;5065689;28;20053;-58
2024/01/02 07:44:47;;;;;;;4.93;1.40;;;;;;;;;;5060289;28;20029;-58
2024/01/02 07:47:12;;;;;;;4.10;1.37;;;;;;;;;;5069703;28;20035;-59
2024/01/02 07:49:38;;;;;;;4.40;1.00;;;;;;;;;;5072815;28;20515;-59
2024/01/02 07:52:04;;;;;;;6.40;1.50;;;;;;;;;;5073076;28;20021;-58
2024/01/02 07:54:29;;;;;;;5.50;1.50;;;;;;;;;;5059709;28;20029;-57
2024/01/02 07:56:55;;;;;;;4.53;1.40;;;;;;;;;;5073597;28;20430;-58
2024/01/02 07:59:22;;;;;;;6.15;1.77;;;;;;;;;;5060844;28;20032;-58
2024/01/02 08:01:48;;;;;;;4.50;1.50;;;;;;;;;;5072193;28;20032;-59
2024/01/02 08:04:13;;;;;;;6.28;1.60;;;;;;;;;;5072521;28;20054;-59
2024/01/02 08:06:38;;;;;;;6.32;1.30;;;;;;;;;;5074599;28;20045;-59
2024/01/02 08:09:03;;;;;;;6.35;1.40;;;;;;;;;;5073482;28;20029;-59
2024/01/02 08:11:29;;;;;;;6.03;1.80;;;;;;;;;;5082477;28;20475;-59
2024/01/02 08:13:54;;;;;;;5.78;1.33;;;;;;;;;;5065453;28;20032;-58
2024/01/02 08:16:20;;;;;;;4.70;1.33;;;;;;;;;;5064183;28;20027;-58
2024/01/02 08:18:45;;;;;;;4.90;1.60;;;;;;;;;;5065798;28;20024;-58
2024/01/02 08:21:10;;;;;;;7.03;1.70;;;;;;;;;;5062921;28;20047;-59
2024/01/02 08:23:36;;;;;;;6.30;1.47;;;;;;;;;;5067891;28;20032;-58
2024/01/02 08:26:13;;;;;;;5.18;1.50;;;;;;;;;;5056758;28;20029;-58
2024/01/02 08:28:38;;;;;;;4.10;1.40;;;;;;;;;;5061315;28;20024;-58
2024/01/02 08:31:03;;;;;;;4.63;1.45;;;;;;;;;;5067093;28;20617;-57
2024/01/02 08:33:29;;;;;;;7.07;1.60;;;;;;;;;;5065980;28;20499;-58
2024/01/02 08:35:54;;;;;;;5.73;1.60;;;;;;;;;;5059449;28;20037;-58
2024/01/02 08:38:20;;;;;;;6.13;1.95;;;;;;;;;;5050298;28;20047;-58
2024/01/02 08:40:45;;;;;;;7.43;1.77;;;;;;;;;;5052547;28;20085;-58
2024/01/02 08:43:10;;;;;;;5.75;1.90;;;;;;;;;;5066267;28;20070;-58
2024/01/02 08:45:35;;;;;;;5.30;1.70;;;;;;;;;;5069413;28;20028;-58
2024/01/02 08:48:00;;;;;;;4.82;1.77;;;;;;;;;;5070417;28;20710;-58
2024/01/02 08:50:28;;;;;;;6.18;1.85;;;;;;;;;;5069595;28;20076;-57
2024/01/02 08:52:53;;;;;;;7.28;1.60;;;;;;;;;;5069808;28;20017;-57
2024/01/02 08:55:19;;;;;;;5.15;1.70;;;;;;;;;;5067204;28;20039;-58
2024/01/02 08:57:44;;;;;;;4.20;1.60;;;;;;;;;;5065195;28;20064;-58
2024/01/02 09:00:10;;;;;;;5.40;1.35;;;;;;;;;;5063414;28;20457;-58
2024/01/02 09:02:36;;;;;;;5.50;1.35;;;;;;;;;;5071046;28;20101;-58
2024/01/02 09:05:01;;;;;;;4.63;1.48;;;;;;;;;;5064467;28;20033;-58
2024/01/02 09:07:26;;;;;;;4.53;1.60;;;;;;;;;;5085297;28;20024;-59
2024/01/02 09:09:52;;;;;;;6.15;1.50;;;;;;;;;;5070138;28;20170;-60
2024/01/02 09:12:17;;;;;;;3.63;1.30;;;;;;;;;;5065848;28;20028;-58
2024/01/02 09:14:42;;;;;;;3.85;1.40;;;;;;;;;;5067297;28;20032;-59
2024/01/02 09:17:08;;;;;;;6.00;1.77;;;;;;;;;;5057544;28;20096;-59
2024/01/02 09:19:33;;;;;;;5.10;1.42;;;;;;;;;;5064207;28;20019;-59
2024/01/02 09:21:58;;;;;;;6.27;1.70;;;;;;;;;;5071920;28;20024;-58
2024/01/02 09:24:23;;;;;;;4.43;1.67;;;;;;;;;;5056799;28;20025;-57
2024/01/02 09:26:51;;;;;;;5.45;1.52;;;;;;;;;;5070574;28;20045;-59
2024/01/02 09:29:17;;;;;;;4.45;1.40;;;;;;;;;;5072686;28;20066;-58
2024/01/02 09:31:43;;;;;;;3.67;1.20;;;;;;;;;;5072580;28;20021;-59
2024/01/02 09:34:09;;;;;;;3.90;1.27;;;;;;;;;;5072110;28;20025;-59
2024/01/02 09:36:34;;;;;;;3.60;1.00;;;;;;;;;;5071786;28;20040;-59
2024/01/02 09:38:59;;;;;;;4.97;1.20;;;;;;;;;;5070619;28;20054;-59
2024/01/02 09:41:30;;;;;;;5.45;1.00;;;;;;;;;;5071539;28;20012;-58
2024/01/02 09:44:08;;;;;;;3.55;1.10;;;;;;;;;;5072172;28;20048;-58
2024/01/02 09:46:39;;;;;;;3.03;1.10;;;;;;;;;;5071983;28;20021;-59
2024/01/02 09:49:10;;;;;;;2.60;1.00;;;;;;;;;;5072039;28;20077;-57
2024/01/02 09:51:42;;;;;;;4.38;1.10;;;;;;;;;;5071833;28;20464;-57
2024/01/02 09:54:24;;;;;;;3.30;1.00;;;;;;;;;;5071930;28;20503;-57
2024/01/02 09:56:52;;;;;;;2.72;0.90;;;;;;;;;;5067378;28;20064;-57
2024/01/02 09:59:29;;;;;;;3.60;1.15;;;;;;;;;;5071481;28;20099;-59
2024/01/02 10:02:00;;;;;;;3.65;1.00;;;;;;;;;;5071338;28;20021;-57
2024/01/02 10:04:44;;;;;;;4.38;0.98;;;;;;;;;;5071730;28;20021;-56
2024/01/02 10:07:36;;;;;;;2.75;1.08;;;;;;;;;;5052780;28;20047;-59
2024/01/02 10:10:08;;;;;;;2.78;0.82;;;;;;;;;;5053808;28;20467;-58
2024/01/02 10:12:33;;;;;;;3.95;0.65;;;;;;;;;;5067443;28;20598;-59
2024/01/02 10:15:17;;;;;;;2.83;0.80;;;;;;;;;;5069724;28;20511;-57
2024/01/02 10:18:01;;;;;;;2.42;0.90;;;;;;;;;;5071515;28;20044;-57
2024/01/02 10:20:45;;;;;;;2.50;0.88;;;;;;;;;;5071379;28;20020;-59
2024/01/02 10:23:13;;;;;;;2.72;0.73;;;;;;;;;;5069977;28;20031;-60
2024/01/02 10:25:39;;;;;;;3.47;0.80;;;;;;;;;;5060989;28;20123;-59
2024/01/02 10:28:11;;;;;;;3.53;1.10;;;;;;;;;;5069749;28;20024;-58
2024/01/02 10:30:55;;;;;;;2.22;0.70;;;;;;;;;;5070750;28;20426;-59
2024/01/02 10:33:20;;;;;;;;;;;;;;;;;;5071723;28;20495;-59
2024/01/02 10:35:52;;;;;;;3.10;0.90;;;;;;;;;;5071161;28;20372;-59
2024/01/02 10:38:29;;;;;;;2.85;0.80;;;;;;;;;;5061254;28;20032;-58
2024/01/02 10:41:03;;;;;;;3.40;0.88;;;;;;;;;;5068025;28;20032;-58
2024/01/02 10:43:30;;;;;;;2.55;0.90;;;;;;;;;;5070656;28;20105;-59
2024/01/02 10:45:55;;;;;;;;;;;;;;;;;;5071749;28;20033;-57
2024/01/02 10:48:39;;;;;;;2.85;0.80;;;;;;;;;;5071519;28;19943;-59
2024/01/02 10:51:05;;;;;;;2.72;0.75;;;;;;;;;;5070828;28;20021;-59
2024/01/02 10:53:36;;;;;;;2.92;0.80;;;;;;;;;;5066920;28;20461;-59
2024/01/02 10:56:13;;;;;;;2.28;0.60;;;;;;;;;;5062725;28;20086;-59
2024/01/02 10:58:41;;;;;;;3.13;0.90;;;;;;;;;;5070633;28;20044;-59
2024/01/02 11:01:09;;;;;;;2.42;0.70;;;;;;;;;;5070450;28;20032;-59
2024/01/02 11:03:46;;;;;;;2.70;0.80;;;;;;;;;;5064643;28;20488;-59
2024/01/02 11:06:22;;;;;;;3.10;0.80;;;;;;;;;;5068770;28;20032;-59
2024/01/02 11:09:00;;;;;;;2.88;0.90;;;;;;;;;;5070709;28;20021;-59
2024/01/02 11:11:26;;;;;;;2.60;0.90;;;;;;;;;;5070426;28;20023;-57
2024/01/02 11:13:52;;;;;;;2.38;0.75;;;;;;;;;;5070272;28;20024;-57
2024/01/02 11:16:18;;;;;;;3.53;0.88;;;;;;;;;;5067068;28;20021;-59
2024/01/02 11:18:45;;;;;;;4.10;0.80;;;;;;;;;;5069844;28;20032;-59
2024/01/02 11:21:13;;;;;;;2.63;0.70;;;;;;;;;;5071581;28;20021;-57
2024/01/02 11:23:42;;;;;;;2.95;1.05;;;;;;;;;;5072048;28;20070;-58
2024/01/02 11:26:14;;;;;;;4.43;0.93;;;;;;;;;;5072099;28;20012;-58
2024/01/02 11:28:40;;;;;;;3.42;0.80;;;;;;;;;;5072467;28;20036;-59
2024/01/02 11:31:07;;;;;;;2.42;0.80;;;;;;;;;;5070807;28;20412;-59
2024/01/02 11:33:38;;;;;;;2.47;0.80;;;;;;;;;;5064852;28;20177;-56
2024/01/02 11:36:03;;;;;;;2.30;0.80;;;;;;;;;;5059000;28;20113;-59
2024/01/02 11:38:33;;;;;;;2.53;0.75;;;;;;;;;;5068262;28;20025;-57
2024/01/02 11:41:10;;;;;;;2.80;0.68;;;;;;;;;;5070327;28;20024;-58
2024/01/02 11:43:36;;;;;;;2.60;0.70;;;;;;;;;;5065387;28;20078;-58
2024/01/02 11:46:03;;;;;;;2.28;0.73;;;;;;;;;;5070551;28;20088;-58
2024/01/02 11:48:34;;;;;;;2.75;0.88;;;;;;;;;;5065426;28;20021;-58
2024/01/02 11:51:02;;;;;;;3.08;1.00;;;;;;;;;;5060957;28;20024;-59
2024/01/02 11:53:51;;;;;;;2.80;0.70;;;;;;;;;;5068527;28;20023;-59
2024/01/02 11:56:16;;;;;;;2.95;0.80;;;;;;;;;;5064267;28;20021;-58
2024/01/02 11:58:51;;;;;;;2.95;0.65;;;;;;;;;;5070164;28;20447;-58
2024/01/02 12:01:25;;;;;;;1.98;0.70;;;;;;;;;;5070097;28;20448;-59
2024/01/02 12:03:57;;;;;;;2.80;0.70;;;;;;;;;;5069531;28;20107;-58
2024/01/02 12:06:44;;;;;;;3.00;0.90;;;;;;;;;;5061973;28;20025;-59
2024/01/02 12:09:14;;;;;;;2.33;0.80;;;;;;;;;;5064412;28;20430;-59
2024/01/02 12:11:44;;;;;;;3.00;0.95;;;;;;;;;;5071545;28;20502;-58
2024/01/02 12:14:09;;;;;;;3.08;0.80;;;;;;;;;;5071420;28;20032;-59
2024/01/02 12:16:36;;;;;;;4.00;1.00;;;;;;;;;;5070589;28;20101;-58
2024/01/02 12:19:01;;;;;;;;;;;;;;;;;;5054724;28;20079;-58
2024/01/02 12:21:27;;;;;;;3.35;0.90;;;;;;;;;;5057452;28;19908;-59
2024/01/02 12:23:53;;;;;;;2.58;0.88;;;;;;;;;;5073060;28;20029;-59
2024/01/02 12:26:20;;;;;;;3.63;0.98;;;;;;;;;;5073131;28;20366;-58
2024/01/02 12:28:45;;;;;;;2.85;0.90;;;;;;;;;;5073220;28;20460;-59
2024/01/02 12:31:14;;;;;;;2.75;1.00;;;;;;;;;;5072877;28;20095;-59
2024/01/02 12:33:46;;;;;;;2.55;0.70;;;;;;;;;;5071407;28;20016;-59
2024/01/02 12:36:26;;;;;;;3.08;0.95;;;;;;;;;;5068149;28;20016;-59
2024/01/02 12:38:52;;;;;;;3.25;1.00;;;;;;;;;;5060161;28;20526;-58
2024/01/02 12:41:26;;;;;;;3.83;0.82;;;;;;;;;;5071382;28;20119;-59
2024/01/02 12:44:02;;;;;;;5.50;0.93;;;;;;;;;;5070710;28;20475;-58
2024/01/02 12:46:50;;;;;;;1.85;0.63;;;;;;;;;;5064970;28;20056;-58
2024/01/02 12:49:19;;;;;;;2.47;0.80;;;;;;;;;;5065355;28;20025;-59
2024/01/02 12:51:46;;;;;;;2.33;0.80;;;;;;;;;;5072171;28;20025;-58
2024/01/02 12:54:12;;;;;;;3.25;1.00;;;;;;;;;;5072175;28;20454;-58
2024/01/02 12:56:39;;;;;;;3.05;1.00;;;;;;;;;;5071439;28;20029;-58
2024/01/02 12:59:06;;;;;;;3.25;1.00;;;;;;;;;;5072370;28;20024;-58
2024/01/02 13:01:31;;;;;;;4.22;1.17;;;;;;;;;;5071368;28;20472;-58
2024/01/02 13:03:58;;;;;;;2.80;0.85;;;;;;;;;;5071576;28;20034;-58
2024/01/02 13:06:23;;;;;;;2.75;0.90;;;;;;;;;;5076472;28;20040;-58
2024/01/02 13:08:49;;;;;;;3.88;1.10;;;;;;;;;;5073964;28;20013;-59
2024/01/02 13:11:15;;;;;;;2.85;0.90;;;;;;;;;;5071535;28;20017;-59
2024/01/02 13:13:41;;;;;;;2.38;0.80;;;;;;;;;;5070840;28;20009;-58
2024/01/02 13:16:06;;;;;;;2.85;0.90;;;;;;;;;;5076664;28;20051;-57
2024/01/02 13:18:32;;;;;;;3.07;0.90;;;;;;;;;;5075016;28;20027;-58
2024/01/02 13:20:58;;;;;;;3.30;1.00;;;;;;;;;;5072480;28;20130;-59
2024/01/02 13:23:23;;;;;;;3.60;0.80;;;;;;;;;;5075531;28;20398;-58
2024/01/02 13:25:48;;;;;;;2.58;0.90;;;;;;;;;;5078606;28;20468;-58
2024/01/02 13:28:17;;;;;;;3.23;0.80;;;;;;;;;;5072350;28;20106;-58
2024/01/02 13:30:47;;;;;;;2.72;0.80;;;;;;;;;;5073215;28;20021;-57
2024/01/02 13:33:13;;;;;;;2.65;0.90;;;;;;;;;;5059220;28;20405;-58
2024/01/02 13:35:38;;;;;;;2.85;0.80;;;;;;;;;;5063207;28;20381;-58
2024/01/02 13:38:04;;;;;;;2.85;0.90;;;;;;;;;;5070596;28;20070;-58
2024/01/02 13:40:30;;;;;;;2.05;0.73;;;;;;;;;;5074301;28;20012;-58
2024/01/02 13:43:00;;;;;;;3.47;0.95;;;;;;;;;;5063888;28;20028;-57
2024/01/02 13:45:32;;;;;;;3.78;1.10;;;;;;;;;;5071459;28;20016;-58
2024/01/02 13:48:06;;;;;;;3.72;0.85;;;;;;;;;;5066046;28;20052;-58
2024/01/02 13:50:32;;;;;;;3.28;1.10;;;;;;;;;;5066220;28;20032;-58
2024/01/02 13:53:03;;;;;;;3.00;0.93;;;;;;;;;;5063158;28;20017;-59
2024/01/02 13:55:29;;;;;;;3.45;0.90;;;;;;;;;;5070321;28;20024;-59
2024/01/02 13:57:54;;;;;;;2.50;0.90;;;;;;;;;;5065280;28;20029;-58
2024/01/02 14:00:19;;;;;;;2.13;0.77;;;;;;;;;;5071514;28;20427;-59
2024/01/02 14:02:49;;;;;;;1.90;0.80;;;;;;;;;;5070655;28;20193;-59
2024/01/02 14:05:14;;;;;;;2.92;1.00;;;;;;;;;;5071251;28;21080;-59
2024/01/02 14:07:42;;;;;;;3.37;1.10;;;;;;;;;;5069112;28;20158;-58
2024/01/02 14:10:07;;;;;;;3.05;0.98;;;;;;;;;;5067359;28;20008;-58
2024/01/02 14:12:40;;;;;;;2.92;1.00;;;;;;;;;;5068237;28;20008;-59
2024/01/02 14:15:08;;;;;;;3.75;1.02;;;;;;;;;;5070541;28;20488;-58
2024/01/02 14:17:36;;;;;;;3.38;1.00;;;;;;;;;;5077049;28;20016;-58
2024/01/02 14:20:06;;;;;;;3.42;1.10;;;;;;;;;;5073901;28;20027;-58
2024/01/02 14:23:01;;;;;;;3.25;0.80;;;;;;;;;;5074535;28;20032;-59
2024/01/02 14:25:32;;;;;;;3.97;1.35;;;;;;;;;;5051810;28;20037;-59
2024/01/02 14:28:09;;;;;;;4.55;0.95;;;;;;;;;;5055788;28;20017;-58
2024/01/02 14:30:36;;;;;;;3.88;1.05;;;;;;;;;;5071067;28;20047;-58
2024/01/02 14:33:20;;;;;;;3.22;1.10;;;;;;;;;;5062118;28;20081;-58
2024/01/02 14:36:06;;;;;;;3.95;1.30;;;;;;;;;;5068540;28;20234;-59
2024/01/02 14:38:31;;;;;;;4.80;1.00;;;;;;;;;;5067340;28;20063;-58
2024/01/02 14:41:08;;;;;;;4.15;1.20;;;;;;;;;;5070247;28;20020;-59
2024/01/02 14:43:34;;;;;;;3.65;1.33;;;;;;;;;;5062043;28;20536;-59